Hornsby, Tennessee
Current Conditions -  °F | °C
As of 8:15 PM on Thursday 20 Nov 2014 (Local Time) from KCRX Reporting Station
Haze Haze  
Wind Chill: 45°   Ceiling: 7000
Heat Index: 45°   Visibility: 6mi
Dew Point: 30°   Wind: 0mph
Humidity: 57%   Direction: NA
Pressure: 30.24"   Gusts: NA
Location:  35.23°N, 88.83°W
Report Text: KCRX 210215Z AUTO 00000KT 6SM HZ OVC070 07/M01 A3024 RMK AO2
Loading
Personal Weather Stations






























Interactive Weather Map New forecast layout! Learn more

10-Day Weather Forecast

Advertisements
Track Severe Weather on mobile